Time;durP1;ratioP1;P1;durP2;ratioP2;P2;SDS_P1;SDS_P2;PMS_P1;PMS_P2;Temp;Humidity;BMP_temperature;BMP_pressure;BME280_temperature;BME280_humidity;BME280_pressure;Samples;Min_cycle;Max_cycle;Signal;HPM_P1;HPM_P2
2024/01/17 00:01:55;;;;;;;15.47;7.80;;;3.70;63.30;;;;;;5091041;28;20508;-70
2024/01/17 00:04:21;;;;;;;13.63;7.80;;;3.80;63.30;;;;;;5093997;28;20027;-70
2024/01/17 00:06:47;;;;;;;14.83;7.43;;;3.80;63.30;;;;;;5095003;28;20337;-70
2024/01/17 00:09:15;;;;;;;14.87;7.47;;;3.70;63.30;;;;;;5104076;28;20039;-70
2024/01/17 00:11:42;;;;;;;14.07;7.10;;;3.70;63.20;;;;;;5095045;28;20028;-70
2024/01/17 00:14:08;;;;;;;16.53;7.83;;;3.70;63.30;;;;;;5094979;28;20028;-70
2024/01/17 00:16:34;;;;;;;14.03;7.23;;;3.70;64.00;;;;;;5094580;28;20063;-70
2024/01/17 00:19:00;;;;;;;14.50;7.23;;;3.70;63.30;;;;;;5092604;28;20116;-70
2024/01/17 00:21:27;;;;;;;13.33;7.63;;;3.70;63.30;;;;;;5093239;28;20517;-70
2024/01/17 00:23:52;;;;;;;18.20;9.13;;;3.70;63.30;;;;;;5076503;28;20051;-70
2024/01/17 00:26:18;;;;;;;15.20;7.37;;;3.70;63.40;;;;;;5094801;28;20047;-70
2024/01/17 00:28:44;;;;;;;13.63;6.80;;;3.70;63.50;;;;;;5094809;28;20060;-70
2024/01/17 00:31:10;;;;;;;12.30;7.37;;;3.70;63.50;;;;;;5090859;28;20085;-70
2024/01/17 00:33:35;;;;;;;12.97;7.07;;;3.60;63.40;;;;;;5093461;28;20067;-70
2024/01/17 00:36:02;;;;;;;17.10;8.13;;;3.60;63.50;;;;;;5093966;28;20044;-70
2024/01/17 00:38:27;;;;;;;12.47;7.33;;;3.60;63.60;;;;;;5102376;28;20310;-70
2024/01/17 00:40:53;;;;;;;16.60;7.27;;;3.60;63.60;;;;;;5093193;28;20024;-70
2024/01/17 00:43:19;;;;;;;16.43;7.17;;;3.60;63.60;;;;;;5093332;28;20371;-70
2024/01/17 00:45:45;;;;;;;14.50;7.10;;;3.60;63.50;;;;;;5092717;28;20024;-69
2024/01/17 00:48:13;;;;;;;14.63;7.90;;;3.60;63.50;;;;;;5092457;28;20023;-70
2024/01/17 00:50:39;;;;;;;14.27;7.00;;;3.60;63.60;;;;;;5093790;28;20169;-69
2024/01/17 00:53:06;;;;;;;13.43;6.10;;;3.60;63.60;;;;;;5093731;28;20089;-70
2024/01/17 00:55:32;;;;;;;14.43;7.03;;;3.60;63.60;;;;;;5093638;28;20062;-69
2024/01/17 00:57:58;;;;;;;12.20;6.40;;;3.50;63.70;;;;;;5092119;28;20103;-70
2024/01/17 01:00:24;;;;;;;10.83;6.53;;;3.50;63.70;;;;;;5101015;28;20122;-70
2024/01/17 01:02:52;;;;;;;13.43;6.93;;;3.50;63.70;;;;;;5093531;28;20016;-70
2024/01/17 01:05:18;;;;;;;13.10;6.27;;;3.50;63.70;;;;;;5093111;28;20015;-70
2024/01/17 01:07:44;;;;;;;12.33;7.13;;;3.50;63.80;;;;;;5093208;28;20038;-70
2024/01/17 01:10:10;;;;;;;10.13;6.20;;;3.50;63.80;;;;;;5092844;28;20072;-70
2024/01/17 01:12:37;;;;;;;10.93;6.23;;;3.50;63.80;;;;;;5088472;28;20401;-70
2024/01/17 01:15:04;;;;;;;14.20;6.77;;;3.50;63.90;;;;;;5091911;28;20111;-70
2024/01/17 01:17:30;;;;;;;11.43;6.60;;;3.50;63.90;;;;;;5091694;28;20402;-70
2024/01/17 01:19:56;;;;;;;12.33;6.57;;;3.50;63.90;;;;;;5092621;28;20040;-70
2024/01/17 01:22:22;;;;;;;10.77;6.63;;;3.50;64.60;;;;;;5093105;28;20073;-70
2024/01/17 01:24:48;;;;;;;12.67;6.13;;;3.50;63.90;;;;;;5092394;28;20025;-70
2024/01/17 01:27:14;;;;;;;18.13;6.27;;;3.50;63.90;;;;;;5092457;28;20391;-69
2024/01/17 01:29:41;;;;;;;11.53;5.67;;;3.50;63.80;;;;;;5093282;28;20036;-70
2024/01/17 01:32:07;;;;;;;10.70;5.97;;;3.40;63.80;;;;;;5093231;28;20032;-70
2024/01/17 01:34:33;;;;;;;12.57;6.30;;;3.40;64.40;;;;;;5097624;28;20114;-70
2024/01/17 01:37:00;;;;;;;11.43;6.80;;;3.40;63.80;;;;;;5099756;28;20040;-70
2024/01/17 01:39:26;;;;;;;13.67;5.87;;;3.40;63.80;;;;;;5081946;28;20360;-70
2024/01/17 01:41:52;;;;;;;15.60;6.50;;;3.40;63.80;;;;;;5099673;28;20023;-70
2024/01/17 01:44:18;;;;;;;12.47;6.40;;;3.40;63.90;;;;;;5099915;28;20039;-70
2024/01/17 01:46:46;;;;;;;13.90;6.77;;;3.40;63.90;;;;;;5098552;28;20024;-70
2024/01/17 01:49:14;;;;;;;11.93;6.47;;;3.30;63.90;;;;;;5099517;28;20028;-70
2024/01/17 01:51:43;;;;;;;11.73;5.80;;;3.30;63.90;;;;;;5081574;28;20079;-69
2024/01/17 01:54:13;;;;;;;11.40;6.00;;;3.30;63.90;;;;;;5098861;28;20047;-70
2024/01/17 01:56:40;;;;;;;12.90;6.20;;;3.30;63.90;;;;;;5099435;28;20020;-69
2024/01/17 01:59:07;;;;;;;13.17;6.80;;;3.30;64.00;;;;;;5100373;28;20017;-70
2024/01/17 02:01:33;;;;;;;11.53;6.97;;;3.30;64.10;;;;;;5098390;28;20020;-70
2024/01/17 02:04:01;;;;;;;12.33;6.37;;;3.20;64.10;;;;;;5098512;28;20376;-69
2024/01/17 02:06:33;;;;;;;11.27;5.73;;;3.20;64.20;;;;;;5098279;28;20036;-70
2024/01/17 02:09:00;;;;;;;13.73;6.85;;;3.20;64.10;;;;;;5097935;28;20031;-69
2024/01/17 02:11:30;;;;;;;11.23;6.13;;;3.20;64.20;;;;;;5097909;28;20027;-70
2024/01/17 02:13:57;;;;;;;11.23;6.23;;;3.20;64.20;;;;;;5098225;28;20026;-70
2024/01/17 02:16:26;;;;;;;10.33;5.80;;;3.10;64.10;;;;;;5098262;28;20078;-69
2024/01/17 02:18:52;;;;;;;11.70;6.53;;;3.10;64.10;;;;;;5099258;28;20020;-70
2024/01/17 02:21:18;;;;;;;13.47;6.27;;;3.10;64.80;;;;;;5099660;28;20032;-69
2024/01/17 02:23:48;;;;;;;14.90;5.97;;;3.10;64.20;;;;;;5098513;28;20463;-70
2024/01/17 02:26:14;;;;;;;15.23;6.50;;;3.10;64.30;;;;;;5098880;28;20020;-70
2024/01/17 02:28:39;;;;;;;15.70;6.23;;;3.00;64.30;;;;;;5098680;28;20045;-69
2024/01/17 02:31:05;;;;;;;11.87;6.30;;;3.00;64.30;;;;;;5094127;28;20035;-70
2024/01/17 02:33:32;;;;;;;12.77;6.33;;;3.00;64.30;;;;;;5099364;28;20036;-70
2024/01/17 02:35:58;;;;;;;11.97;6.27;;;3.00;64.30;;;;;;5098996;28;20051;-69
2024/01/17 02:38:24;;;;;;;12.80;6.80;;;2.90;64.20;;;;;;5099753;28;20329;-70
2024/01/17 02:40:49;;;;;;;13.97;6.90;;;2.90;64.30;;;;;;5099159;28;20101;-70
2024/01/17 02:43:15;;;;;;;12.80;6.40;;;2.90;64.30;;;;;;5099319;28;20034;-70
2024/01/17 02:45:41;;;;;;;12.00;6.50;;;2.90;64.30;;;;;;5095258;28;20074;-70
2024/01/17 02:48:07;;;;;;;12.97;6.33;;;2.90;64.30;;;;;;5096053;28;20016;-69
2024/01/17 02:50:33;;;;;;;11.63;6.37;;;2.90;64.30;;;;;;5096574;28;20081;-70
2024/01/17 02:52:58;;;;;;;12.43;6.47;;;2.80;64.20;;;;;;5095939;28;20027;-69
2024/01/17 02:55:24;;;;;;;13.90;6.80;;;2.80;64.20;;;;;;5095872;28;20070;-70
2024/01/17 02:57:51;;;;;;;12.13;6.43;;;2.80;64.10;;;;;;5077889;28;20031;-70
2024/01/17 03:00:17;;;;;;;14.00;6.47;;;2.90;64.20;;;;;;5097946;28;20096;-70
2024/01/17 03:02:43;;;;;;;11.23;6.30;;;2.80;64.10;;;;;;5094805;28;20020;-69
2024/01/17 03:05:09;;;;;;;14.93;6.87;;;2.80;64.10;;;;;;5094079;28;20028;-70
2024/01/17 03:07:35;;;;;;;12.47;5.87;;;2.80;64.10;;;;;;5095569;28;20016;-70
2024/01/17 03:10:00;;;;;;;13.77;7.17;;;2.80;64.10;;;;;;5094120;28;20435;-70
2024/01/17 03:12:27;;;;;;;12.57;6.87;;;2.80;64.10;;;;;;5095630;28;20028;-70
2024/01/17 03:14:53;;;;;;;12.90;6.50;;;2.80;64.10;;;;;;5095299;28;20066;-70
2024/01/17 03:17:18;;;;;;;13.47;6.07;;;2.80;64.10;;;;;;5095633;28;20028;-69
2024/01/17 03:19:46;;;;;;;12.13;6.13;;;2.80;64.10;;;;;;5106697;28;20369;-69
2024/01/17 03:22:13;;;;;;;14.40;6.60;;;2.80;64.00;;;;;;5094319;28;20024;-69
2024/01/17 03:24:39;;;;;;;12.33;5.77;;;2.80;64.00;;;;;;5095421;28;20337;-70
2024/01/17 03:27:05;;;;;;;13.17;6.63;;;2.80;63.90;;;;;;5094948;28;20035;-69
2024/01/17 03:29:31;;;;;;;11.17;6.10;;;2.70;63.90;;;;;;5093640;28;20375;-69
2024/01/17 03:31:56;;;;;;;13.23;6.30;;;2.70;63.90;;;;;;5094592;28;20024;-69
2024/01/17 03:34:22;;;;;;;15.47;6.23;;;2.70;63.90;;;;;;5094522;28;20441;-70
2024/01/17 03:36:48;;;;;;;12.90;5.53;;;2.70;64.60;;;;;;5095467;28;20039;-69
2024/01/17 03:39:14;;;;;;;12.57;7.10;;;2.70;63.80;;;;;;5082905;28;20033;-69
2024/01/17 03:41:40;;;;;;;12.33;6.30;;;2.70;63.80;;;;;;5098699;28;20070;-69
2024/01/17 03:44:06;;;;;;;11.93;6.50;;;2.70;63.90;;;;;;5100960;28;20032;-70
2024/01/17 03:46:32;;;;;;;13.47;6.70;;;2.70;63.90;;;;;;5094966;28;20429;-70
2024/01/17 03:48:58;;;;;;;13.47;6.17;;;2.70;63.90;;;;;;5095313;28;20103;-70
2024/01/17 03:51:23;;;;;;;13.37;6.40;;;2.70;63.90;;;;;;5094510;28;20062;-70
2024/01/17 03:53:49;;;;;;;12.40;6.27;;;2.70;63.80;;;;;;5085902;28;20040;-69
2024/01/17 03:56:15;;;;;;;12.63;5.93;;;2.70;63.80;;;;;;5093753;28;20043;-69
2024/01/17 03:58:43;;;;;;;12.27;5.70;;;2.70;63.80;;;;;;5094790;28;20115;-69
2024/01/17 04:01:13;;;;;;;13.20;6.23;;;2.70;64.50;;;;;;5094362;28;20093;-70
2024/01/17 04:03:43;;;;;;;13.20;6.57;;;2.70;63.70;;;;;;5093471;28;20108;-70
2024/01/17 04:06:09;;;;;;;12.73;5.93;;;2.70;63.80;;;;;;5093249;28;20031;-69
2024/01/17 04:08:35;;;;;;;11.37;6.30;;;2.70;63.90;;;;;;5094798;28;20118;-69
2024/01/17 04:11:01;;;;;;;11.53;5.97;;;2.70;63.90;;;;;;5093845;28;20512;-70
2024/01/17 04:13:27;;;;;;;11.77;6.07;;;2.60;63.80;;;;;;5095496;28;20461;-70
2024/01/17 04:15:53;;;;;;;12.67;6.53;;;2.60;63.80;;;;;;5093336;28;20054;-70
2024/01/17 04:18:19;;;;;;;10.73;5.50;;;2.70;63.90;;;;;;5093395;28;20027;-72
2024/01/17 04:20:44;;;;;;;13.03;6.23;;;2.70;63.80;;;;;;5093280;28;20027;-69
2024/01/17 04:23:10;;;;;;;13.50;5.67;;;2.70;63.80;;;;;;5076143;28;20334;-70
2024/01/17 04:25:36;;;;;;;15.60;6.27;;;2.60;63.70;;;;;;5093118;28;20274;-70
2024/01/17 04:28:06;;;;;;;12.47;7.40;;;2.60;63.70;;;;;;5109749;28;20027;-69
2024/01/17 04:30:32;;;;;;;9.97;5.37;;;2.60;63.70;;;;;;5092071;28;20032;-70
2024/01/17 04:32:58;;;;;;;13.23;6.37;;;2.60;63.70;;;;;;5094059;28;20024;-69
2024/01/17 04:35:23;;;;;;;12.40;5.90;;;2.60;63.80;;;;;;5094224;28;20422;-70
2024/01/17 04:37:49;;;;;;;11.70;6.03;;;2.60;63.70;;;;;;5089639;28;20071;-70
2024/01/17 04:40:15;;;;;;;11.37;6.10;;;2.60;63.70;;;;;;5093622;28;20024;-70
2024/01/17 04:42:41;;;;;;;11.00;6.43;;;2.60;63.80;;;;;;5092702;28;20029;-70
2024/01/17 04:45:08;;;;;;;10.63;6.17;;;2.60;63.80;;;;;;5093900;28;20064;-69
2024/01/17 04:47:33;;;;;;;12.37;6.60;;;2.60;63.80;;;;;;5094670;28;20023;-70
2024/01/17 04:49:59;;;;;;;11.00;6.00;;;2.60;63.90;;;;;;5093822;28;20020;-69
2024/01/17 04:52:25;;;;;;;11.47;5.93;;;2.60;63.90;;;;;;5092978;28;20396;-70
2024/01/17 04:54:51;;;;;;;14.00;6.30;;;2.60;63.90;;;;;;5093561;28;20020;-70
2024/01/17 04:57:17;;;;;;;12.73;6.10;;;2.60;64.00;;;;;;5094404;28;20478;-70
2024/01/17 04:59:43;;;;;;;11.70;5.97;;;2.50;63.90;;;;;;5093296;28;20663;-70
2024/01/17 05:02:09;;;;;;;11.60;6.03;;;2.50;63.90;;;;;;5093535;28;20035;-70
2024/01/17 05:04:35;;;;;;;13.90;6.37;;;2.60;64.00;;;;;;5092320;28;20024;-70
2024/01/17 05:07:01;;;;;;;10.87;6.17;;;2.60;64.00;;;;;;5093864;28;20437;-70
2024/01/17 05:09:27;;;;;;;10.67;5.77;;;2.50;64.00;;;;;;5093237;28;20024;-70
2024/01/17 05:11:55;;;;;;;14.80;6.67;;;2.50;64.00;;;;;;5075285;28;20057;-70
2024/01/17 05:14:21;;;;;;;10.57;5.67;;;2.50;64.00;;;;;;5093357;28;20058;-69
2024/01/17 05:16:47;;;;;;;13.00;6.57;;;2.50;64.00;;;;;;5093516;28;20028;-69
2024/01/17 05:19:12;;;;;;;14.77;7.30;;;2.50;64.00;;;;;;5092325;28;20119;-69
2024/01/17 05:21:38;;;;;;;16.63;6.57;;;2.50;64.10;;;;;;5092423;28;20108;-69
2024/01/17 05:24:04;;;;;;;12.93;7.67;;;2.40;64.20;;;;;;5093062;28;20027;-69
2024/01/17 05:26:30;;;;;;;12.97;6.73;;;2.50;64.20;;;;;;5092369;28;20027;-70
2024/01/17 05:28:56;;;;;;;12.10;6.80;;;2.50;64.20;;;;;;5091077;28;20039;-70
2024/01/17 05:31:21;;;;;;;13.30;6.80;;;2.40;64.20;;;;;;5091987;28;20016;-69
2024/01/17 05:33:47;;;;;;;12.10;6.70;;;2.50;64.30;;;;;;5075431;28;20575;-70
2024/01/17 05:36:14;;;;;;;11.17;6.53;;;2.40;64.40;;;;;;5092940;28;20059;-69
2024/01/17 05:38:41;;;;;;;14.83;6.80;;;2.40;64.40;;;;;;5093641;28;20032;-69
2024/01/17 05:41:06;;;;;;;12.17;7.57;;;2.40;64.60;;;;;;5091850;28;20051;-70
2024/01/17 05:43:32;;;;;;;13.90;7.23;;;2.40;64.60;;;;;;5092295;28;20020;-70
2024/01/17 05:45:58;;;;;;;13.63;7.73;;;2.40;64.70;;;;;;5091792;28;20034;-70
2024/01/17 05:48:26;;;;;;;13.90;7.20;;;2.30;64.70;;;;;;5094345;28;20023;-69
2024/01/17 05:50:52;;;;;;;13.37;7.30;;;2.30;64.70;;;;;;5091874;28;20031;-70
2024/01/17 05:53:18;;;;;;;14.27;7.43;;;2.30;64.80;;;;;;5092124;28;20035;-69
2024/01/17 05:55:44;;;;;;;13.33;7.13;;;2.30;64.80;;;;;;5093033;28;20020;-70
2024/01/17 05:58:10;;;;;;;13.37;6.97;;;2.30;64.80;;;;;;5091667;28;20024;-69
2024/01/17 06:00:36;;;;;;;12.97;7.83;;;2.30;64.80;;;;;;5108007;28;20039;-69
2024/01/17 06:03:02;;;;;;;13.53;7.53;;;2.30;64.90;;;;;;5091799;28;20464;-69
2024/01/17 06:05:28;;;;;;;12.50;7.50;;;2.20;65.00;;;;;;5093094;28;20028;-70
2024/01/17 06:07:55;;;;;;;13.93;7.87;;;2.20;65.00;;;;;;5074838;28;20027;-70
2024/01/17 06:10:21;;;;;;;13.93;6.87;;;2.20;65.10;;;;;;5091485;28;20020;-69
2024/01/17 06:12:46;;;;;;;11.17;6.43;;;2.20;65.10;;;;;;5074877;28;20040;-70
2024/01/17 06:15:12;;;;;;;13.00;6.80;;;2.20;65.10;;;;;;5090879;28;20075;-70
2024/01/17 06:17:38;;;;;;;14.33;6.93;;;2.20;65.10;;;;;;5076922;28;20024;-69
2024/01/17 06:20:05;;;;;;;14.03;7.80;;;2.20;65.10;;;;;;5092262;28;20118;-69
2024/01/17 06:22:31;;;;;;;13.20;7.63;;;2.20;64.90;;;;;;5095750;28;20032;-69
2024/01/17 06:24:57;;;;;;;15.03;7.57;;;2.30;65.10;;;;;;5097059;28;20039;-69
2024/01/17 06:27:23;;;;;;;12.30;7.03;;;2.30;65.00;;;;;;5096712;28;20070;-69
2024/01/17 06:29:49;;;;;;;13.03;7.53;;;2.30;64.90;;;;;;5094938;28;20528;-70
2024/01/17 06:32:15;;;;;;;12.57;7.33;;;2.30;64.90;;;;;;5095270;28;20024;-70
2024/01/17 06:34:41;;;;;;;11.67;6.83;;;2.30;65.00;;;;;;5095211;28;20115;-69
2024/01/17 06:37:06;;;;;;;14.90;6.97;;;2.30;65.00;;;;;;5094247;28;20479;-70
2024/01/17 06:39:33;;;;;;;11.90;6.27;;;2.20;65.00;;;;;;5091957;28;20156;-70
2024/01/17 06:41:59;;;;;;;14.70;7.10;;;2.20;65.00;;;;;;5096105;28;20023;-70
2024/01/17 06:44:28;;;;;;;12.63;7.17;;;2.20;65.00;;;;;;5077875;28;20357;-70
2024/01/17 06:46:55;;;;;;;14.67;7.97;;;2.20;64.90;;;;;;5096596;28;20107;-69
2024/01/17 06:49:21;;;;;;;15.23;8.23;;;2.20;64.80;;;;;;5095527;28;20066;-69
2024/01/17 06:51:48;;;;;;;14.70;8.23;;;2.20;64.80;;;;;;5078397;28;20024;-69
2024/01/17 06:54:15;;;;;;;13.77;7.80;;;2.30;64.80;;;;;;5078423;28;20483;-69
2024/01/17 06:56:40;;;;;;;14.60;7.77;;;2.20;64.70;;;;;;5094855;28;20032;-69
2024/01/17 06:59:06;;;;;;;13.33;7.20;;;2.20;64.60;;;;;;5077434;28;20025;-70
2024/01/17 07:01:35;;;;;;;15.10;7.77;;;2.20;64.60;;;;;;5095645;28;20151;-69
2024/01/17 07:04:02;;;;;;;14.50;7.30;;;2.20;64.60;;;;;;5094641;28;20023;-69
2024/01/17 07:06:28;;;;;;;12.87;7.27;;;2.20;64.60;;;;;;5095298;28;20098;-69
2024/01/17 07:08:54;;;;;;;14.13;7.10;;;2.20;64.60;;;;;;5094681;28;20384;-70
2024/01/17 07:11:20;;;;;;;12.27;6.57;;;2.20;64.60;;;;;;5094013;28;20032;-69
2024/01/17 07:13:45;;;;;;;13.87;7.50;;;2.20;64.60;;;;;;5096169;28;20066;-69
2024/01/17 07:16:17;;;;;;;14.53;7.33;;;2.20;64.60;;;;;;5086850;28;20085;-70
2024/01/17 07:18:43;;;;;;;12.90;6.70;;;2.10;64.50;;;;;;5096235;28;20055;-69
2024/01/17 07:21:09;;;;;;;10.20;5.70;;;2.10;65.10;;;;;;5071263;28;20060;-69
2024/01/17 07:23:37;;;;;;;11.10;6.23;;;2.20;64.40;;;;;;5096241;28;20102;-69
2024/01/17 07:26:03;;;;;;;10.97;6.37;;;2.20;64.30;;;;;;5094584;28;20449;-67
2024/01/17 07:28:29;;;;;;;12.10;6.33;;;2.20;64.20;;;;;;5096471;28;20115;-68
2024/01/17 07:30:55;;;;;;;11.87;6.37;;;2.20;64.20;;;;;;5098610;28;20115;-68
2024/01/17 07:33:21;;;;;;;14.17;6.57;;;2.20;64.10;;;;;;5096422;28;20035;-68
2024/01/17 07:35:48;;;;;;;17.90;7.13;;;2.20;64.00;;;;;;5095806;28;20043;-67
2024/01/17 07:38:14;;;;;;;10.90;6.33;;;2.20;64.00;;;;;;5096428;28;20093;-69
2024/01/17 07:40:41;;;;;;;12.63;6.53;;;2.20;63.90;;;;;;5097583;28;20036;-68
2024/01/17 07:43:07;;;;;;;14.83;6.50;;;2.20;63.80;;;;;;5095330;28;20326;-69
2024/01/17 07:45:33;;;;;;;14.77;7.00;;;2.20;63.80;;;;;;5095948;28;20123;-69
2024/01/17 07:47:59;;;;;;;12.70;6.67;;;2.20;63.80;;;;;;5094353;28;20464;-69
2024/01/17 07:50:25;;;;;;;11.00;6.30;;;2.20;63.80;;;;;;5091078;28;20023;-69
2024/01/17 07:52:50;;;;;;;10.83;5.67;;;2.20;63.80;;;;;;5095360;28;20506;-70
2024/01/17 07:55:16;;;;;;;13.73;6.07;;;2.20;63.80;;;;;;5095935;28;20032;-69
2024/01/17 07:57:42;;;;;;;12.17;5.13;;;2.20;63.70;;;;;;5094092;28;20020;-68
2024/01/17 08:00:08;;;;;;;12.90;5.90;;;2.20;63.60;;;;;;5093637;28;20078;-70
2024/01/17 08:02:40;;;;;;;14.10;6.30;;;2.20;63.60;;;;;;5095569;28;20032;-69
2024/01/17 08:05:06;;;;;;;12.37;6.67;;;2.20;63.70;;;;;;5094459;28;20039;-69
2024/01/17 08:07:33;;;;;;;13.20;6.53;;;2.20;63.80;;;;;;5094843;28;20028;-69
2024/01/17 08:09:58;;;;;;;11.37;6.43;;;2.20;63.80;;;;;;5094482;28;20074;-69
2024/01/17 08:12:24;;;;;;;12.10;6.30;;;2.20;63.80;;;;;;5103342;28;20460;-69
2024/01/17 08:14:50;;;;;;;12.53;5.90;;;2.20;63.80;;;;;;5094889;28;20077;-68
2024/01/17 08:17:16;;;;;;;12.17;6.53;;;2.20;63.70;;;;;;5094263;28;20027;-68
2024/01/17 08:19:41;;;;;;;12.23;5.87;;;2.20;63.60;;;;;;5094555;28;20445;-68
2024/01/17 08:22:07;;;;;;;12.37;6.53;;;2.10;63.70;;;;;;5093264;28;20421;-68
2024/01/17 08:24:34;;;;;;;12.93;6.83;;;2.20;63.80;;;;;;5100164;28;20111;-68
2024/01/17 08:26:59;;;;;;;11.13;6.23;;;2.20;63.80;;;;;;5094569;28;20033;-68
2024/01/17 08:29:26;;;;;;;13.73;6.70;;;2.20;63.70;;;;;;5094649;28;20191;-68
2024/01/17 08:31:52;;;;;;;11.90;6.37;;;2.20;63.70;;;;;;5092727;28;20016;-68
2024/01/17 08:34:20;;;;;;;11.70;6.40;;;2.20;63.70;;;;;;5106872;28;20028;-68
2024/01/17 08:36:47;;;;;;;14.40;6.33;;;2.20;63.70;;;;;;5094364;28;20071;-68
2024/01/17 08:39:12;;;;;;;12.80;6.10;;;2.20;63.60;;;;;;5094016;28;20042;-68
2024/01/17 08:41:41;;;;;;;13.87;7.67;;;2.30;63.60;;;;;;5093944;28;20032;-69
2024/01/17 08:44:07;;;;;;;12.20;6.27;;;2.30;63.60;;;;;;5096166;28;20032;-68
2024/01/17 08:46:40;;;;;;;13.73;6.60;;;2.30;63.60;;;;;;5094993;28;20036;-68
2024/01/17 08:49:06;;;;;;;12.27;6.43;;;2.40;63.60;;;;;;5093725;28;20031;-69
2024/01/17 08:51:32;;;;;;;11.97;6.10;;;2.40;63.60;;;;;;5098869;28;20381;-69
2024/01/17 08:53:58;;;;;;;13.47;7.03;;;2.40;63.50;;;;;;5110461;28;20077;-70
2024/01/17 08:56:24;;;;;;;11.13;6.07;;;2.40;63.50;;;;;;5095238;28;20035;-70
2024/01/17 08:58:50;;;;;;;13.57;6.63;;;2.40;63.50;;;;;;5093554;28;20024;-70
2024/01/17 09:01:15;;;;;;;14.07;6.37;;;2.40;63.50;;;;;;5092931;28;20039;-70
2024/01/17 09:03:44;;;;;;;14.23;7.17;;;2.40;63.50;;;;;;5094042;28;20024;-70
2024/01/17 09:06:10;;;;;;;12.30;6.57;;;2.40;63.50;;;;;;5095053;28;20027;-68
2024/01/17 09:08:36;;;;;;;12.60;6.57;;;2.40;63.40;;;;;;5093953;28;20040;-68
2024/01/17 09:11:05;;;;;;;12.17;6.57;;;2.40;63.40;;;;;;5093910;28;20475;-69
2024/01/17 09:13:31;;;;;;;12.13;6.30;;;2.40;63.40;;;;;;5094806;28;20110;-69
2024/01/17 09:15:57;;;;;;;12.23;5.90;;;2.40;63.30;;;;;;5093085;28;20036;-70
2024/01/17 09:18:23;;;;;;;12.60;6.90;;;2.40;63.30;;;;;;5093917;28;20035;-68
2024/01/17 09:20:49;;;;;;;17.57;6.57;;;2.50;63.30;;;;;;5090326;28;20052;-69
2024/01/17 09:23:14;;;;;;;11.73;7.40;;;2.50;63.30;;;;;;5102888;28;20020;-69
2024/01/17 09:25:40;;;;;;;14.03;6.70;;;2.50;63.30;;;;;;5094756;28;20036;-69
2024/01/17 09:28:06;;;;;;;12.50;7.23;;;2.50;63.30;;;;;;5095584;28;20566;-69
2024/01/17 09:30:32;;;;;;;13.43;7.00;;;2.50;63.30;;;;;;5091969;28;20035;-69
2024/01/17 09:32:57;;;;;;;11.47;6.27;;;2.60;63.20;;;;;;5092879;28;20081;-69
2024/01/17 09:35:23;;;;;;;11.43;6.67;;;2.60;63.20;;;;;;5093606;28;20039;-69
2024/01/17 09:37:49;;;;;;;12.70;6.57;;;2.60;63.20;;;;;;5095263;28;20055;-69
2024/01/17 09:40:15;;;;;;;13.57;7.13;;;2.60;63.20;;;;;;5093510;28;20051;-68
2024/01/17 09:42:41;;;;;;;12.90;6.90;;;2.60;63.20;;;;;;5099349;28;20039;-68
2024/01/17 09:45:10;;;;;;;14.13;7.03;;;2.60;63.20;;;;;;5093868;28;20031;-69
2024/01/17 09:47:38;;;;;;;12.73;6.37;;;2.70;63.20;;;;;;5109765;28;20368;-69
2024/01/17 09:50:05;;;;;;;14.03;7.10;;;2.70;63.20;;;;;;5109883;28;20039;-68
2024/01/17 09:52:33;;;;;;;13.30;7.13;;;2.70;63.20;;;;;;5106350;28;20027;-69
2024/01/17 09:55:00;;;;;;;13.63;6.90;;;2.70;63.20;;;;;;5081706;28;20465;-69
2024/01/17 09:57:30;;;;;;;12.50;7.40;;;2.70;63.30;;;;;;5097297;28;20020;-68
2024/01/17 09:59:59;;;;;;;12.90;7.33;;;2.70;63.20;;;;;;5097574;28;20027;-69
2024/01/17 10:02:27;;;;;;;11.77;6.87;;;2.80;63.20;;;;;;5097011;28;20012;-68
2024/01/17 10:04:55;;;;;;;12.63;6.83;;;2.80;63.20;;;;;;5097135;28;20054;-68
2024/01/17 10:07:20;;;;;;;14.07;7.47;;;2.80;63.10;;;;;;5097527;28;20027;-68
2024/01/17 10:09:46;;;;;;;14.53;7.57;;;2.90;63.00;;;;;;5097548;28;20035;-68
2024/01/17 10:12:13;;;;;;;11.90;6.30;;;2.90;63.00;;;;;;5094404;28;20024;-68
2024/01/17 10:14:40;;;;;;;12.97;6.47;;;2.90;62.90;;;;;;5101509;28;20114;-68
2024/01/17 10:17:06;;;;;;;12.87;6.77;;;2.90;62.80;;;;;;5096396;28;20027;-68
2024/01/17 10:19:33;;;;;;;13.33;7.53;;;2.90;62.70;;;;;;5097050;28;20418;-68
2024/01/17 10:22:02;;;;;;;14.57;6.87;;;2.90;62.70;;;;;;5088966;28;20027;-68
2024/01/17 10:24:32;;;;;;;13.40;7.43;;;2.90;63.40;;;;;;5096268;28;20023;-68
2024/01/17 10:27:00;;;;;;;12.87;7.03;;;2.90;62.70;;;;;;5086318;28;20436;-67
2024/01/17 10:29:26;;;;;;;13.70;7.07;;;2.90;62.70;;;;;;5096223;28;20093;-68
2024/01/17 10:31:59;;;;;;;14.77;7.77;;;2.90;62.60;;;;;;5098312;28;20039;-68
2024/01/17 10:34:31;;;;;;;11.97;6.63;;;3.00;62.50;;;;;;5101327;28;20100;-66
2024/01/17 10:36:57;;;;;;;15.37;7.53;;;3.00;62.50;;;;;;5085876;28;20132;-68
2024/01/17 10:39:28;;;;;;;16.43;7.70;;;3.00;62.40;;;;;;5097225;28;20054;-68
2024/01/17 10:41:56;;;;;;;12.25;6.65;;;3.00;62.40;;;;;;5096738;28;20039;-67
2024/01/17 10:44:23;;;;;;;13.53;7.37;;;3.00;62.40;;;;;;5097838;28;20286;-68
2024/01/17 10:46:53;;;;;;;12.93;7.33;;;3.00;62.40;;;;;;5096721;28;20454;-69
2024/01/17 10:49:22;;;;;;;12.50;7.13;;;3.00;62.40;;;;;;5097283;28;20115;-68
2024/01/17 10:52:13;;;;;;;13.67;7.50;;;3.00;62.50;;;;;;5097523;28;20116;-68
2024/01/17 10:54:50;;;;;;;15.70;7.93;;;3.00;62.40;;;;;;5096606;28;20115;-69
2024/01/17 10:57:18;;;;;;;12.43;7.30;;;3.00;62.30;;;;;;5101208;28;20031;-68
2024/01/17 10:59:50;;;;;;;14.83;7.77;;;3.00;62.30;;;;;;5096801;28;20048;-69
2024/01/17 11:02:19;;;;;;;15.23;7.67;;;3.00;62.20;;;;;;5095600;28;20067;-68
2024/01/17 11:04:47;;;;;;;15.33;8.17;;;3.10;62.30;;;;;;5095957;28;20421;-68
2024/01/17 11:07:16;;;;;;;14.13;8.17;;;3.10;62.30;;;;;;5096246;28;20066;-69
2024/01/17 11:09:45;;;;;;;16.53;8.50;;;3.10;63.00;;;;;;5096195;28;20032;-68
2024/01/17 11:12:13;;;;;;;14.77;8.27;;;3.10;62.40;;;;;;5097193;28;20036;-68
2024/01/17 11:14:42;;;;;;;14.53;7.13;;;3.10;62.40;;;;;;5095683;28;20055;-68
2024/01/17 11:17:08;;;;;;;16.53;8.40;;;3.10;62.30;;;;;;5096842;28;20020;-68
2024/01/17 11:19:37;;;;;;;13.43;7.63;;;3.10;62.20;;;;;;5102367;28;20028;-68
2024/01/17 11:22:03;;;;;;;15.67;8.20;;;3.10;62.30;;;;;;5082525;28;20090;-68
2024/01/17 11:24:43;;;;;;;15.13;8.60;;;3.10;62.20;;;;;;5095424;28;20372;-67
2024/01/17 11:27:14;;;;;;;15.93;6.97;;;3.20;62.30;;;;;;5094948;28;20370;-68
2024/01/17 11:30:03;;;;;;;13.48;8.15;;;3.20;62.20;;;;;;5108070;27;20093;-68
2024/01/17 11:32:53;;;;;;;12.53;7.50;;;3.20;62.10;;;;;;5108768;28;20057;-68
2024/01/17 11:35:57;;;;;;;14.80;7.57;;;3.20;62.00;;;;;;5088015;28;20417;-68
2024/01/17 11:38:23;;;;;;;14.27;7.73;;;3.20;62.00;;;;;;5024369;28;20029;-68
2024/01/17 11:41:09;;;;;;;14.93;7.87;;;3.20;62.80;;;;;;5033161;28;20060;-69
2024/01/17 11:43:41;;;;;;;13.43;6.97;;;3.30;62.00;;;;;;5064245;28;20111;-68
2024/01/17 11:46:10;;;;;;;;;;;3.30;62.00;;;;;;5095818;28;20176;-66
2024/01/17 11:48:40;;;;;;;12.27;6.83;;;3.30;62.00;;;;;;5094800;28;19908;-68
2024/01/17 11:51:18;;;;;;;14.67;7.30;;;3.30;61.90;;;;;;5095081;28;20024;-67
2024/01/17 11:53:50;;;;;;;12.77;6.37;;;3.30;61.80;;;;;;5094473;28;20032;-68
2024/01/17 11:56:20;;;;;;;;;;;3.30;61.70;;;;;;5095156;28;20035;-68
2024/01/17 11:58:47;;;;;;;13.20;7.23;;;3.30;61.70;;;;;;5077729;28;19915;-69
2024/01/17 12:01:26;;;;;;;12.83;7.73;;;3.30;61.60;;;;;;5098352;28;20027;-69
2024/01/17 12:03:52;;;;;;;15.37;7.97;;;3.30;61.50;;;;;;5085290;28;20028;-68
2024/01/17 12:06:21;;;;;;;12.87;6.80;;;3.30;61.50;;;;;;5093911;28;20069;-68
2024/01/17 12:08:49;;;;;;;14.53;7.60;;;3.40;61.50;;;;;;5094720;28;20107;-67
2024/01/17 12:11:15;;;;;;;13.43;7.37;;;3.40;61.50;;;;;;5094404;28;20051;-65
2024/01/17 12:13:41;;;;;;;14.17;7.43;;;3.40;61.60;;;;;;5094809;28;20028;-67
2024/01/17 12:16:11;;;;;;;15.00;7.70;;;3.40;61.70;;;;;;5105830;28;20036;-68
2024/01/17 12:18:37;;;;;;;13.07;6.73;;;3.40;61.70;;;;;;5094306;28;20028;-67
2024/01/17 12:21:04;;;;;;;15.40;8.10;;;3.40;61.80;;;;;;5092662;28;20024;-67
2024/01/17 12:23:37;;;;;;;14.73;8.60;;;3.40;61.90;;;;;;5101950;28;20448;-68
2024/01/17 12:26:03;;;;;;;15.20;8.20;;;3.40;62.00;;;;;;5094906;28;20039;-68
2024/01/17 12:28:29;;;;;;;17.43;8.47;;;3.40;62.10;;;;;;5094694;28;20016;-68
2024/01/17 12:31:03;;;;;;;14.17;7.87;;;3.50;62.20;;;;;;5094920;28;20020;-68
2024/01/17 12:33:32;;;;;;;12.10;7.50;;;3.50;62.10;;;;;;5086612;28;20107;-67
2024/01/17 12:36:00;;;;;;;17.00;8.43;;;3.50;62.10;;;;;;5095072;28;20040;-67
2024/01/17 12:38:30;;;;;;;15.53;8.60;;;3.50;62.00;;;;;;5094569;28;20028;-67
2024/01/17 12:40:57;;;;;;;13.83;8.47;;;3.50;62.10;;;;;;5094155;28;20040;-68
2024/01/17 12:43:26;;;;;;;14.03;8.23;;;3.50;62.10;;;;;;5101701;28;20133;-67
2024/01/17 12:45:53;;;;;;;14.67;8.30;;;3.60;62.10;;;;;;5094258;28;20020;-68
2024/01/17 12:48:19;;;;;;;12.37;8.20;;;3.60;62.10;;;;;;5095444;28;20441;-67